www.cux-wetter.de
Wetterdaten: Freitag, 31.12.2010
Datum Zeit Temp. A. Feuchte A. Luftdruck Regen Wind Richtung Richtung Sonnenschein Solar Taupunkt Windchill Windben
31.12.2010 00:00 1,1 C 96 % 1018,5 hPa 0,0 l/m 16,8 km/h (3 Bft) W-NW 285 0 min 0 W/m 0,5 C -6,6 C 16,8 km/h (3 Bft)
31.12.2010 00:04 1,1 C 97 % 1018,5 hPa 0,0 l/m 21,4 km/h (4 Bft) W 275 0 min 0 W/m 0,7 C -8,8 C 21,4 km/h (4 Bft)
31.12.2010 00:09 1,1 C 97 % 1018,5 hPa 0,0 l/m 16,1 km/h (3 Bft) W 270 0 min 0 W/m 0,7 C -6,3 C 16,1 km/h (3 Bft)
31.12.2010 00:14 1,1 C 97 % 1018,5 hPa 0,0 l/m 15,8 km/h (3 Bft) W 275 0 min 0 W/m 0,7 C -6,1 C 15,8 km/h (3 Bft)
31.12.2010 00:19 1,1 C 97 % 1018,5 hPa 0,0 l/m 16,4 km/h (3 Bft) W 270 0 min 0 W/m 0,7 C -6,4 C 16,4 km/h (3 Bft)
31.12.2010 00:25 1,1 C 97 % 1018,5 hPa 0,0 l/m 21,7 km/h (4 Bft) W 275 0 min 0 W/m 0,7 C -8,9 C 21,7 km/h (4 Bft)
31.12.2010 00:30 1,1 C 97 % 1018,5 hPa 0,0 l/m 16,7 km/h (3 Bft) W 280 0 min 0 W/m 0,7 C -6,6 C 16,7 km/h (3 Bft)
31.12.2010 00:35 1,1 C 97 % 1018,5 hPa 0,0 l/m 16,6 km/h (3 Bft) W 260 0 min 0 W/m 0,7 C -6,5 C 16,6 km/h (3 Bft)
31.12.2010 00:40 1,1 C 97 % 1018,5 hPa 0,0 l/m 18,0 km/h (3 Bft) W 275 0 min 0 W/m 0,7 C -7,3 C 18,0 km/h (3 Bft)
31.12.2010 00:45 1,1 C 97 % 1018,5 hPa 0,0 l/m 15,3 km/h (3 Bft) W 275 0 min 0 W/m 0,7 C -5,8 C 15,3 km/h (3 Bft)
31.12.2010 00:49 1,1 C 97 % 1017,5 hPa 0,0 l/m 21,0 km/h (4 Bft) W 275 0 min 0 W/m 0,7 C -8,7 C 21,0 km/h (4 Bft)
31.12.2010 00:54 1,1 C 97 % 1018,5 hPa 0,0 l/m 18,3 km/h (3 Bft) W 275 0 min 0 W/m 0,7 C -7,4 C 18,3 km/h (3 Bft)
31.12.2010 00:59 1,2 C 97 % 1018,5 hPa 0,0 l/m 21,9 km/h (4 Bft) W 270 0 min 0 W/m 0,8 C -8,9 C 21,9 km/h (4 Bft)
31.12.2010 01:05 1,2 C 97 % 1018,5 hPa 0,0 l/m 21,7 km/h (4 Bft) W 275 0 min 0 W/m 0,8 C -8,8 C 21,7 km/h (4 Bft)
31.12.2010 01:10 1,2 C 97 % 1018,5 hPa 0,0 l/m 18,0 km/h (3 Bft) W-NW 290 0 min 0 W/m 0,8 C -7,1 C 18,0 km/h (3 Bft)
31.12.2010 01:15 1,2 C 97 % 1018,5 hPa 0,0 l/m 20,0 km/h (4 Bft) W-NW 285 0 min 0 W/m 0,8 C -8,1 C 20,0 km/h (4 Bft)
31.12.2010 01:19 1,2 C 97 % 1018,5 hPa 0,0 l/m 20,0 km/h (4 Bft) W-NW 285 0 min 0 W/m 0,8 C -8,1 C 20,0 km/h (4 Bft)
31.12.2010 01:24 1,3 C 97 % 1018,5 hPa 0,0 l/m 21,0 km/h (4 Bft) W-NW 300 0 min 0 W/m 0,9 C -8,4 C 21,0 km/h (4 Bft)
31.12.2010 01:29 1,3 C 97 % 1018,5 hPa 0,0 l/m 19,0 km/h (3 Bft) W-NW 290 0 min 0 W/m 0,9 C -7,5 C 19,0 km/h (3 Bft)
31.12.2010 01:34 1,3 C 97 % 1018,5 hPa 0,0 l/m 19,7 km/h (3 Bft) W-NW 300 0 min 0 W/m 0,9 C -7,8 C 19,7 km/h (3 Bft)
31.12.2010 01:39 1,3 C 97 % 1018,5 hPa 0,0 l/m 17,8 km/h (3 Bft) W-NW 285 0 min 0 W/m 0,9 C -6,9 C 17,8 km/h (3 Bft)
31.12.2010 01:45 1,4 C 97 % 1018,5 hPa 0,0 l/m 20,2 km/h (4 Bft) W-NW 285 0 min 0 W/m 1,0 C -7,9 C 20,2 km/h (4 Bft)
31.12.2010 01:50 1,4 C 97 % 1018,5 hPa 0,0 l/m 21,4 km/h (4 Bft) W-NW 300 0 min 0 W/m 1,0 C -8,4 C 21,4 km/h (4 Bft)
31.12.2010 01:55 1,4 C 97 % 1018,5 hPa 0,0 l/m 22,3 km/h (4 Bft) W-NW 295 0 min 0 W/m 1,0 C -8,8 C 22,3 km/h (4 Bft)
31.12.2010 02:00 1,5 C 97 % 1018,5 hPa 0,0 l/m 18,8 km/h (3 Bft) W-NW 290 0 min 0 W/m 1,1 C -7,1 C 18,8 km/h (3 Bft)
31.12.2010 02:04 1,5 C 97 % 1018,5 hPa 0,0 l/m 22,3 km/h (4 Bft) W-NW 295 0 min 0 W/m 1,1 C -8,7 C 22,3 km/h (4 Bft)
31.12.2010 02:09 1,5 C 97 % 1018,5 hPa 0,0 l/m 21,5 km/h (4 Bft) W-NW 285 0 min 0 W/m 1,1 C -8,3 C 21,5 km/h (4 Bft)
31.12.2010 02:15 1,5 C 97 % 1018,5 hPa 0,0 l/m 14,7 km/h (3 Bft) W-NW 290 0 min 0 W/m 1,1 C -5,0 C 14,7 km/h (3 Bft)
31.12.2010 02:20 1,6 C 97 % 1017,5 hPa 0,0 l/m 17,0 km/h (3 Bft) W-NW 290 0 min 0 W/m 1,2 C -6,1 C 17,0 km/h (3 Bft)
31.12.2010 02:25 1,7 C 97 % 1017,5 hPa 0,0 l/m 20,3 km/h (4 Bft) W-NW 295 0 min 0 W/m 1,3 C -7,6 C 20,3 km/h (4 Bft)
31.12.2010 02:30 1,7 C 97 % 1017,5 hPa 0,0 l/m 21,5 km/h (4 Bft) W-NW 300 0 min 0 W/m 1,3 C -8,1 C 21,5 km/h (4 Bft)
31.12.2010 02:35 1,8 C 97 % 1017,5 hPa 0,0 l/m 17,6 km/h (3 Bft) NW 305 0 min 0 W/m 1,4 C -6,2 C 17,6 km/h (3 Bft)
31.12.2010 02:39 1,9 C 98 % 1017,5 hPa 0,0 l/m 17,1 km/h (3 Bft) W-NW 295 0 min 0 W/m 1,6 C -5,8 C 17,1 km/h (3 Bft)
31.12.2010 02:44 1,9 C 98 % 1017,5 hPa 0,0 l/m 17,9 km/h (3 Bft) W-NW 290 0 min 0 W/m 1,6 C -6,2 C 17,9 km/h (3 Bft)
31.12.2010 02:49 1,9 C 97 % 1017,5 hPa 0,0 l/m 14,0 km/h (3 Bft) W-NW 290 0 min 0 W/m 1,5 C -4,1 C 14,0 km/h (3 Bft)
31.12.2010 02:54 1,9 C 98 % 1017,5 hPa 0,0 l/m 15,5 km/h (3 Bft) NW 305 0 min 0 W/m 1,6 C -5,0 C 15,5 km/h (3 Bft)
31.12.2010 02:59 1,9 C 97 % 1017,5 hPa 0,0 l/m 18,0 km/h (3 Bft) NW 305 0 min 0 W/m 1,5 C -6,3 C 18,0 km/h (3 Bft)
31.12.2010 03:05 1,9 C 97 % 1017,5 hPa 0,0 l/m 16,8 km/h (3 Bft) NW 310 0 min 0 W/m 1,5 C -5,7 C 16,8 km/h (3 Bft)
31.12.2010 03:09 2,0 C 97 % 1018,5 hPa 0,0 l/m 17,8 km/h (3 Bft) W-NW 295 0 min 0 W/m 1,6 C -6,0 C 17,8 km/h (3 Bft)
31.12.2010 03:14 2,0 C 97 % 1018,5 hPa 0,0 l/m 17,0 km/h (3 Bft) NW 315 0 min 0 W/m 1,6 C -5,6 C 17,0 km/h (3 Bft)
31.12.2010 03:19 2,0 C 97 % 1018,5 hPa 0,0 l/m 17,8 km/h (3 Bft) NW 310 0 min 0 W/m 1,6 C -6,0 C 17,8 km/h (3 Bft)
31.12.2010 03:24 2,1 C 97 % 1018,5 hPa 0,0 l/m 14,2 km/h (3 Bft) NW 315 0 min 0 W/m 1,7 C -4,0 C 14,2 km/h (3 Bft)
31.12.2010 03:29 2,3 C 97 % 1018,5 hPa 0,0 l/m 15,8 km/h (3 Bft) NW 310 0 min 0 W/m 1,9 C -4,6 C 15,8 km/h (3 Bft)
31.12.2010 03:35 2,3 C 97 % 1018,5 hPa 0,0 l/m 13,5 km/h (3 Bft) NW 305 0 min 0 W/m 1,9 C -3,3 C 13,5 km/h (3 Bft)
31.12.2010 03:40 2,3 C 97 % 1017,5 hPa 0,0 l/m 17,9 km/h (3 Bft) NW 310 0 min 0 W/m 1,9 C -5,7 C 17,9 km/h (3 Bft)
31.12.2010 03:45 2,4 C 97 % 1018,5 hPa 0,0 l/m 21,7 km/h (4 Bft) NW 315 0 min 0 W/m 2,0 C -7,2 C 21,7 km/h (4 Bft)
31.12.2010 03:50 2,4 C 97 % 1018,5 hPa 0,0 l/m 17,1 km/h (3 Bft) W-NW 300 0 min 0 W/m 2,0 C -5,2 C 17,1 km/h (3 Bft)
31.12.2010 03:54 2,4 C 97 % 1018,5 hPa 0,0 l/m 19,3 km/h (3 Bft) NW 315 0 min 0 W/m 2,0 C -6,2 C 19,3 km/h (3 Bft)
31.12.2010 03:59 2,4 C 97 % 1018,5 hPa 0,0 l/m 16,8 km/h (3 Bft) NW 320 0 min 0 W/m 2,0 C -5,0 C 16,8 km/h (3 Bft)
31.12.2010 04:05 2,5 C 97 % 1018,5 hPa 0,0 l/m 17,4 km/h (3 Bft) NW 320 0 min 0 W/m 2,1 C -5,2 C 17,4 km/h (3 Bft)
31.12.2010 04:10 2,5 C 97 % 1018,5 hPa 0,0 l/m 15,8 km/h (3 Bft) NW 310 0 min 0 W/m 2,1 C -4,4 C 15,8 km/h (3 Bft)
31.12.2010 04:15 2,5 C 97 % 1018,5 hPa 0,0 l/m 12,9 km/h (3 Bft) NW 320 0 min 0 W/m 2,1 C -2,7 C 12,9 km/h (3 Bft)
31.12.2010 04:19 2,5 C 97 % 1018,5 hPa 0,0 l/m 15,5 km/h (3 Bft) NW 305 0 min 0 W/m 2,1 C -4,2 C 15,5 km/h (3 Bft)
31.12.2010 04:24 2,5 C 97 % 1018,5 hPa 0,0 l/m 16,5 km/h (3 Bft) NW 310 0 min 0 W/m 2,1 C -4,8 C 16,5 km/h (3 Bft)
31.12.2010 04:29 2,5 C 97 % 1018,5 hPa 0,0 l/m 14,2 km/h (3 Bft) NW 315 0 min 0 W/m 2,1 C -3,5 C 14,2 km/h (3 Bft)
31.12.2010 04:34 2,5 C 97 % 1018,5 hPa 0,0 l/m 14,8 km/h (3 Bft) NW 325 0 min 0 W/m 2,1 C -3,8 C 14,8 km/h (3 Bft)
31.12.2010 04:39 2,5 C 97 % 1018,5 hPa 0,0 l/m 14,1 km/h (3 Bft) N-NW 335 0 min 0 W/m 2,1 C -3,4 C 14,1 km/h (3 Bft)
31.12.2010 04:45 2,5 C 97 % 1018,5 hPa 0,0 l/m 21,0 km/h (4 Bft) N-NW 330 0 min 0 W/m 2,1 C -6,8 C 21,0 km/h (4 Bft)
31.12.2010 04:50 2,5 C 97 % 1018,5 hPa 0,0 l/m 13,8 km/h (3 Bft) NW 320 0 min 0 W/m 2,1 C -3,3 C 13,8 km/h (3 Bft)
31.12.2010 04:55 2,4 C 97 % 1018,5 hPa 0,0 l/m 16,8 km/h (3 Bft) N-NW 330 0 min 0 W/m 2,0 C -5,0 C 16,8 km/h (3 Bft)
31.12.2010 05:00 2,4 C 97 % 1018,5 hPa 0,0 l/m 19,8 km/h (3 Bft) N-NW 335 0 min 0 W/m 2,0 C -6,4 C 19,8 km/h (3 Bft)
31.12.2010 05:04 2,3 C 97 % 1018,5 hPa 0,0 l/m 18,6 km/h (3 Bft) NW 315 0 min 0 W/m 1,9 C -6,0 C 18,6 km/h (3 Bft)
31.12.2010 05:09 2,3 C 97 % 1018,5 hPa 0,0 l/m 19,1 km/h (3 Bft) NW 315 0 min 0 W/m 1,9 C -6,3 C 19,1 km/h (3 Bft)
31.12.2010 05:15 2,3 C 97 % 1018,5 hPa 0,0 l/m 13,7 km/h (3 Bft) NW 310 0 min 0 W/m 1,9 C -3,4 C 13,7 km/h (3 Bft)
31.12.2010 05:20 2,2 C 97 % 1018,5 hPa 0,0 l/m 12,4 km/h (2 Bft) NW 310 0 min 0 W/m 1,8 C -2,7 C 12,4 km/h (2 Bft)
31.12.2010 05:25 2,2 C 97 % 1018,5 hPa 0,0 l/m 13,1 km/h (3 Bft) NW 310 0 min 0 W/m 1,8 C -3,2 C 13,1 km/h (3 Bft)
31.12.2010 05:30 2,2 C 97 % 1018,5 hPa 0,0 l/m 11,9 km/h (2 Bft) NW 305 0 min 0 W/m 1,8 C -2,4 C 11,9 km/h (2 Bft)
31.12.2010 05:34 2,2 C 97 % 1018,5 hPa 0,0 l/m 17,6 km/h (3 Bft) NW 305 0 min 0 W/m 1,8 C -5,7 C 17,6 km/h (3 Bft)
31.12.2010 05:39 2,2 C 97 % 1018,5 hPa 0,0 l/m 15,3 km/h (3 Bft) NW 315 0 min 0 W/m 1,8 C -4,5 C 15,3 km/h (3 Bft)
31.12.2010 05:44 2,3 C 97 % 1018,5 hPa 0,0 l/m 16,1 km/h (3 Bft) NW 315 0 min 0 W/m 1,9 C -4,8 C 16,1 km/h (3 Bft)
31.12.2010 05:49 2,3 C 97 % 1018,5 hPa 0,0 l/m 20,7 km/h (4 Bft) NW 315 0 min 0 W/m 1,9 C -7,0 C 20,7 km/h (4 Bft)
31.12.2010 05:55 2,3 C 97 % 1018,5 hPa 0,0 l/m 13,9 km/h (3 Bft) NW 310 0 min 0 W/m 1,9 C -3,6 C 13,9 km/h (3 Bft)
31.12.2010 06:00 2,2 C 97 % 1018,5 hPa 0,0 l/m 14,7 km/h (3 Bft) NW 305 0 min 0 W/m 1,8 C -4,1 C 14,7 km/h (3 Bft)
31.12.2010 06:04 2,2 C 97 % 1018,5 hPa 0,0 l/m 17,1 km/h (3 Bft) NW 315 0 min 0 W/m 1,8 C -5,4 C 17,1 km/h (3 Bft)
31.12.2010 06:09 2,2 C 97 % 1018,5 hPa 0,0 l/m 17,8 km/h (3 Bft) NW 320 0 min 0 W/m 1,8 C -5,8 C 17,8 km/h (3 Bft)
31.12.2010 06:14 2,3 C 97 % 1018,5 hPa 0,0 l/m 11,7 km/h (2 Bft) NW 320 0 min 0 W/m 1,9 C -2,1 C 11,7 km/h (2 Bft)
31.12.2010 06:19 2,3 C 97 % 1018,5 hPa 0,0 l/m 17,6 km/h (3 Bft) NW 320 0 min 0 W/m 1,9 C -5,6 C 17,6 km/h (3 Bft)
31.12.2010 06:25 2,3 C 97 % 1018,5 hPa 0,0 l/m 16,6 km/h (3 Bft) NW 320 0 min 0 W/m 1,9 C -5,1 C 16,6 km/h (3 Bft)
31.12.2010 06:30 2,3 C 97 % 1018,5 hPa 0,0 l/m 19,3 km/h (3 Bft) N-NW 330 0 min 0 W/m 1,9 C -6,4 C 19,3 km/h (3 Bft)
31.12.2010 06:35 2,3 C 97 % 1018,5 hPa 0,0 l/m 20,6 km/h (4 Bft) NW 325 0 min 0 W/m 1,9 C -6,9 C 20,6 km/h (4 Bft)
31.12.2010 06:40 2,2 C 97 % 1018,5 hPa 0,0 l/m 16,0 km/h (3 Bft) N-NW 335 0 min 0 W/m 1,8 C -4,9 C 16,0 km/h (3 Bft)
31.12.2010 06:44 2,2 C 97 % 1018,5 hPa 0,0 l/m 18,0 km/h (3 Bft) N-NW 330 0 min 0 W/m 1,8 C -5,9 C 18,0 km/h (3 Bft)
31.12.2010 06:49 2,2 C 97 % 1018,5 hPa 0,0 l/m 18,8 km/h (3 Bft) N-NW 340 0 min 0 W/m 1,8 C -6,3 C 18,8 km/h (3 Bft)
31.12.2010 06:54 2,2 C 97 % 1018,5 hPa 0,0 l/m 19,9 km/h (4 Bft) N-NW 330 0 min 0 W/m 1,8 C -6,7 C 19,9 km/h (4 Bft)
31.12.2010 06:59 2,1 C 97 % 1018,5 hPa 0,0 l/m 18,8 km/h (3 Bft) N-NW 335 0 min 0 W/m 1,7 C -6,4 C 18,8 km/h (3 Bft)
31.12.2010 07:05 2,1 C 97 % 1018,5 hPa 0,0 l/m 17,5 km/h (3 Bft) N 350 0 min 0 W/m 1,7 C -5,8 C 17,5 km/h (3 Bft)
31.12.2010 07:09 2,1 C 97 % 1018,5 hPa 0,0 l/m 16,8 km/h (3 Bft) NW 320 0 min 0 W/m 1,7 C -5,4 C 16,8 km/h (3 Bft)
31.12.2010 07:14 2,0 C 97 % 1018,5 hPa 0,0 l/m 16,0 km/h (3 Bft) N-NW 340 0 min 0 W/m 1,6 C -5,1 C 16,0 km/h (3 Bft)
31.12.2010 07:19 1,9 C 97 % 1018,5 hPa 0,0 l/m 16,9 km/h (3 Bft) N-NW 335 0 min 0 W/m 1,5 C -5,7 C 16,9 km/h (3 Bft)
31.12.2010 07:24 1,9 C 97 % 1018,5 hPa 0,0 l/m 19,1 km/h (3 Bft) N-NW 335 0 min 0 W/m 1,5 C -6,8 C 19,1 km/h (3 Bft)
31.12.2010 07:29 1,9 C 97 % 1018,5 hPa 0,0 l/m 17,3 km/h (3 Bft) NW 325 0 min 0 W/m 1,5 C -5,9 C 17,3 km/h (3 Bft)
31.12.2010 07:35 1,9 C 97 % 1018,5 hPa 0,0 l/m 10,7 km/h (2 Bft) N-NW 330 0 min 0 W/m 1,5 C -1,9 C 10,7 km/h (2 Bft)
31.12.2010 07:40 1,8 C 97 % 1018,5 hPa 0,0 l/m 14,8 km/h (3 Bft) N-NW 330 0 min 0 W/m 1,4 C -4,7 C 14,8 km/h (3 Bft)
31.12.2010 07:45 1,9 C 97 % 1019,5 hPa 0,0 l/m 14,8 km/h (3 Bft) N-NW 330 0 min 0 W/m 1,5 C -4,6 C 14,8 km/h (3 Bft)
31.12.2010 07:50 1,9 C 97 % 1019,5 hPa 0,0 l/m 12,3 km/h (2 Bft) NW 320 0 min 0 W/m 1,5 C -3,0 C 12,3 km/h (2 Bft)
31.12.2010 07:54 1,9 C 97 % 1019,5 hPa 0,0 l/m 10,7 km/h (2 Bft) NW 325 0 min 0 W/m 1,5 C -1,9 C 10,7 km/h (2 Bft)
31.12.2010 07:59 1,9 C 97 % 1019,5 hPa 0,0 l/m 12,8 km/h (3 Bft) N-NW 330 0 min 0 W/m 1,5 C -3,3 C 12,8 km/h (3 Bft)
31.12.2010 08:05 1,9 C 97 % 1019,5 hPa 0,0 l/m 12,8 km/h (3 Bft) N-NW 330 0 min 0 W/m 1,5 C -3,3 C 12,8 km/h (3 Bft)
31.12.2010 08:10 1,9 C 97 % 1019,5 hPa 0,0 l/m 13,6 km/h (3 Bft) NW 325 0 min 0 W/m 1,5 C -3,9 C 13,6 km/h (3 Bft)
31.12.2010 08:15 1,9 C 97 % 1019,5 hPa 0,0 l/m 13,6 km/h (3 Bft) NW 325 0 min 0 W/m 1,5 C -3,9 C 13,6 km/h (3 Bft)
31.12.2010 08:19 1,9 C 97 % 1019,5 hPa 0,0 l/m 16,9 km/h (3 Bft) NW 325 0 min 0 W/m 1,5 C -5,7 C 16,9 km/h (3 Bft)
31.12.2010 08:24 1,9 C 97 % 1019,5 hPa 0,0 l/m 11,3 km/h (2 Bft) NW 325 0 min 0 W/m 1,5 C -2,3 C 11,3 km/h (2 Bft)
31.12.2010 08:29 1,9 C 97 % 1019,5 hPa 0,0 l/m 11,4 km/h (2 Bft) NW 310 0 min 0 W/m 1,5 C -2,4 C 11,4 km/h (2 Bft)
31.12.2010 08:34 1,9 C 97 % 1019,5 hPa 0,0 l/m 11,4 km/h (2 Bft) NW 310 0 min 0 W/m 1,5 C -2,4 C 11,4 km/h (2 Bft)
31.12.2010 08:40 1,9 C 97 % 1019,5 hPa 0,0 l/m 11,4 km/h (2 Bft) NW 310 0 min 0 W/m 1,5 C -2,4 C 11,4 km/h (2 Bft)
31.12.2010 08:45 1,9 C 97 % 1019,5 hPa 0,0 l/m 16,3 km/h (3 Bft) NW 320 0 min 0 W/m 1,5 C -5,4 C 16,3 km/h (3 Bft)
31.12.2010 08:50 2,1 C 97 % 1019,5 hPa 0,0 l/m 15,4 km/h (3 Bft) NW 320 0 min 0 W/m 1,7 C -4,7 C 15,4 km/h (3 Bft)
31.12.2010 08:55 2,1 C 97 % 1019,5 hPa 0,0 l/m 15,4 km/h (3 Bft) NW 320 0 min 0 W/m 1,7 C -4,7 C 15,4 km/h (3 Bft)
31.12.2010 08:59 1,9 C 97 % 1019,5 hPa 0,0 l/m 10,8 km/h (2 Bft) NW 315 0 min 0 W/m 1,5 C -2,0 C 10,8 km/h (2 Bft)
31.12.2010 09:05 2,0 C 97 % 1019,5 hPa 0,0 l/m 20,5 km/h (4 Bft) N-NW 335 0 min 0 W/m 1,6 C -7,3 C 20,5 km/h (4 Bft)
31.12.2010 09:10 2,0 C 97 % 1019,5 hPa 0,0 l/m 13,1 km/h (3 Bft) N-NW 335 0 min 0 W/m 1,6 C -3,4 C 13,1 km/h (3 Bft)
31.12.2010 09:15 2,0 C 97 % 1019,5 hPa 0,0 l/m 13,1 km/h (3 Bft) N-NW 335 0 min 0 W/m 1,6 C -3,4 C 13,1 km/h (3 Bft)
31.12.2010 09:20 2,0 C 97 % 1019,5 hPa 0,0 l/m 13,1 km/h (3 Bft) N-NW 335 0 min 0 W/m 1,6 C -3,4 C 13,1 km/h (3 Bft)
31.12.2010 09:24 2,1 C 96 % 1019,5 hPa 0,0 l/m 13,1 km/h (3 Bft) N-NW 335 0 min 0 W/m 1,5 C -3,3 C 13,1 km/h (3 Bft)
31.12.2010 09:29 2,1 C 96 % 1019,5 hPa 0,0 l/m 13,1 km/h (3 Bft) N-NW 335 0 min 0 W/m 1,5 C -3,3 C 13,1 km/h (3 Bft)
31.12.2010 09:34 2,1 C 96 % 1019,5 hPa 0,0 l/m 15,3 km/h (3 Bft) N-NW 330 0 min 0 W/m 1,5 C -4,6 C 15,3 km/h (3 Bft)
31.12.2010 09:39 2,2 C 96 % 1019,5 hPa 0,0 l/m 16,5 km/h (3 Bft) NW 315 0 min 0 W/m 1,6 C -5,1 C 16,5 km/h (3 Bft)
31.12.2010 09:45 2,3 C 96 % 1019,5 hPa 0,0 l/m 18,6 km/h (3 Bft) NW 305 0 min 0 W/m 1,7 C -6,0 C 18,6 km/h (3 Bft)
31.12.2010 09:50 2,3 C 96 % 1019,5 hPa 0,0 l/m 22,4 km/h (4 Bft) NW 325 0 min 0 W/m 1,7 C -7,6 C 22,4 km/h (4 Bft)
31.12.2010 09:55 2,3 C 96 % 1019,5 hPa 0,0 l/m 17,1 km/h (3 Bft) NW 320 0 min 0 W/m 1,7 C -5,3 C 17,1 km/h (3 Bft)
31.12.2010 09:59 2,3 C 96 % 1019,5 hPa 0,0 l/m 14,0 km/h (3 Bft) NW 320 0 min 0 W/m 1,7 C -3,6 C 14,0 km/h (3 Bft)
31.12.2010 10:05 2,4 C 96 % 1019,5 hPa 0,0 l/m 12,9 km/h (3 Bft) NW 315 0 min 0 W/m 1,8 C -2,8 C 12,9 km/h (3 Bft)
31.12.2010 10:10 2,3 C 95 % 1019,5 hPa 0,0 l/m 20,8 km/h (4 Bft) NW 305 0 min 0 W/m 1,6 C -7,0 C 20,8 km/h (4 Bft)
31.12.2010 10:15 2,3 C 95 % 1019,5 hPa 0,0 l/m 20,8 km/h (4 Bft) NW 305 0 min 0 W/m 1,6 C -7,0 C 20,8 km/h (4 Bft)
31.12.2010 10:20 2,4 C 95 % 1019,5 hPa 0,0 l/m 20,8 km/h (4 Bft) NW 305 0 min 0 W/m 1,7 C -6,9 C 20,8 km/h (4 Bft)
31.12.2010 10:24 2,5 C 95 % 1019,5 hPa 0,0 l/m 20,8 km/h (4 Bft) NW 305 0 min 0 W/m 1,8 C -6,7 C 20,8 km/h (4 Bft)
31.12.2010 10:29 2,4 C 95 % 1019,5 hPa 0,0 l/m 20,8 km/h (4 Bft) NW 305 0 min 0 W/m 1,7 C -6,9 C 20,8 km/h (4 Bft)
31.12.2010 10:34 2,5 C 95 % 1019,5 hPa 0,0 l/m 20,8 km/h (4 Bft) NW 305 0 min 0 W/m 1,8 C -6,7 C 20,8 km/h (4 Bft)
31.12.2010 10:39 2,5 C 95 % 1019,5 hPa 0,0 l/m 20,8 km/h (4 Bft) NW 305 0 min 0 W/m 1,8 C -6,7 C 20,8 km/h (4 Bft)
31.12.2010 10:45 2,5 C 94 % 1019,5 hPa 0,0 l/m 20,8 km/h (4 Bft) NW 305 0 min 0 W/m 1,6 C -6,7 C 20,8 km/h (4 Bft)
31.12.2010 10:50 2,5 C 94 % 1019,5 hPa 0,0 l/m 17,6 km/h (3 Bft) NW 310 0 min 0 W/m 1,6 C -5,3 C 17,6 km/h (3 Bft)
31.12.2010 10:55 2,5 C 94 % 1019,5 hPa 0,0 l/m 17,6 km/h (3 Bft) NW 310 0 min 0 W/m 1,6 C -5,3 C 17,6 km/h (3 Bft)
31.12.2010 10:59 2,5 C 94 % 1019,5 hPa 0,0 l/m 17,6 km/h (3 Bft) NW 310 0 min 0 W/m 1,6 C -5,3 C 17,6 km/h (3 Bft)
31.12.2010 11:04 2,5 C 94 % 1019,5 hPa 0,0 l/m 14,3 km/h (3 Bft) W-NW 290 0 min 0 W/m 1,6 C -3,6 C 14,3 km/h (3 Bft)
31.12.2010 11:10 2,5 C 94 % 1019,5 hPa 0,0 l/m 14,3 km/h (3 Bft) W-NW 290 0 min 0 W/m 1,6 C -3,6 C 14,3 km/h (3 Bft)
31.12.2010 11:15 2,7 C 94 % 1020,5 hPa 0,0 l/m 9,6 km/h (2 Bft) NW 305 0 min 0 W/m 1,8 C -0,2 C 9,6 km/h (2 Bft)
31.12.2010 11:20 2,6 C 94 % 1020,5 hPa 0,0 l/m 9,6 km/h (2 Bft) NW 305 0 min 0 W/m 1,7 C -0,3 C 9,6 km/h (2 Bft)
31.12.2010 11:24 2,7 C 94 % 1020,5 hPa 0,0 l/m 9,6 km/h (2 Bft) NW 305 0 min 0 W/m 1,8 C -0,2 C 9,6 km/h (2 Bft)
31.12.2010 11:29 2,7 C 94 % 1020,5 hPa 0,0 l/m 13,8 km/h (3 Bft) NW 305 0 min 0 W/m 1,8 C -3,0 C 13,8 km/h (3 Bft)
31.12.2010 11:34 2,7 C 94 % 1020,5 hPa 0,0 l/m 17,0 km/h (3 Bft) NW 305 0 min 0 W/m 1,8 C -4,8 C 17,0 km/h (3 Bft)
31.12.2010 11:39 2,9 C 95 % 1020,5 hPa 0,0 l/m 14,7 km/h (3 Bft) NW 305 0 min 0 W/m 2,2 C -3,3 C 14,7 km/h (3 Bft)
31.12.2010 11:45 3,1 C 94 % 1020,5 hPa 0,0 l/m 16,1 km/h (3 Bft) NW 310 0 min 0 W/m 2,2 C -3,8 C 16,1 km/h (3 Bft)
31.12.2010 11:50 3,0 C 93 % 1020,5 hPa 0,0 l/m 19,5 km/h (3 Bft) NW 305 0 min 0 W/m 2,0 C -5,5 C 19,5 km/h (3 Bft)
31.12.2010 11:55 2,8 C 93 % 1020,5 hPa 0,0 l/m 16,3 km/h (3 Bft) NW 305 0 min 0 W/m 1,8 C -4,3 C 16,3 km/h (3 Bft)
31.12.2010 12:00 2,7 C 93 % 1020,5 hPa 0,0 l/m 14,5 km/h (3 Bft) NW 310 0 min 0 W/m 1,7 C -3,4 C 14,5 km/h (3 Bft)
31.12.2010 12:04 2,7 C 93 % 1020,5 hPa 0,0 l/m 15,6 km/h (3 Bft) NW 305 0 min 0 W/m 1,7 C -4,0 C 15,6 km/h (3 Bft)
31.12.2010 12:10 2,8 C 93 % 1020,5 hPa 0,0 l/m 17,6 km/h (3 Bft) NW 315 0 min 0 W/m 1,8 C -4,9 C 17,6 km/h (3 Bft)
31.12.2010 12:15 3,1 C 93 % 1020,5 hPa 0,0 l/m 16,3 km/h (3 Bft) NW 305 0 min 0 W/m 2,1 C -3,9 C 16,3 km/h (3 Bft)
31.12.2010 12:20 3,1 C 93 % 1020,5 hPa 0,0 l/m 13,3 km/h (3 Bft) W-NW 300 0 min 0 W/m 2,1 C -2,2 C 13,3 km/h (3 Bft)
31.12.2010 12:24 2,9 C 91 % 1020,5 hPa 0,0 l/m 14,6 km/h (3 Bft) W-NW 290 0 min 0 W/m 1,6 C -3,2 C 14,6 km/h (3 Bft)
31.12.2010 12:29 2,9 C 92 % 1020,5 hPa 0,0 l/m 19,1 km/h (3 Bft) NW 305 0 min 0 W/m 1,7 C -5,5 C 19,1 km/h (3 Bft)
31.12.2010 12:34 2,8 C 92 % 1019,5 hPa 0,0 l/m 14,5 km/h (3 Bft) W-NW 300 0 min 0 W/m 1,6 C -3,3 C 14,5 km/h (3 Bft)
31.12.2010 12:39 2,8 C 92 % 1019,5 hPa 0,0 l/m 18,8 km/h (3 Bft) NW 305 0 min 0 W/m 1,6 C -5,5 C 18,8 km/h (3 Bft)
31.12.2010 12:45 2,8 C 92 % 1019,5 hPa 0,0 l/m 14,1 km/h (3 Bft) NW 310 0 min 0 W/m 1,6 C -3,1 C 14,1 km/h (3 Bft)
31.12.2010 12:50 2,7 C 92 % 1019,5 hPa 0,0 l/m 16,0 km/h (3 Bft) W-NW 300 0 min 0 W/m 1,5 C -4,2 C 16,0 km/h (3 Bft)
31.12.2010 12:55 2,6 C 92 % 1019,5 hPa 0,0 l/m 13,3 km/h (3 Bft) W-NW 285 0 min 0 W/m 1,4 C -2,8 C 13,3 km/h (3 Bft)
31.12.2010 13:00 2,5 C 91 % 1019,5 hPa 0,0 l/m 16,4 km/h (3 Bft) W-NW 290 0 min 0 W/m 1,2 C -4,7 C 16,4 km/h (3 Bft)
31.12.2010 13:04 2,4 C 92 % 1019,5 hPa 0,0 l/m 14,8 km/h (3 Bft) NW 305 0 min 0 W/m 1,2 C -4,0 C 14,8 km/h (3 Bft)
31.12.2010 13:10 2,5 C 92 % 1019,5 hPa 0,0 l/m 20,1 km/h (4 Bft) W-NW 295 0 min 0 W/m 1,3 C -6,4 C 20,1 km/h (4 Bft)
31.12.2010 13:15 2,6 C 92 % 1019,5 hPa 0,0 l/m 13,6 km/h (3 Bft) W-NW 295 0 min 0 W/m 1,4 C -3,0 C 13,6 km/h (3 Bft)
31.12.2010 13:20 2,7 C 92 % 1019,5 hPa 0,0 l/m 13,6 km/h (3 Bft) W-NW 295 0 min 0 W/m 1,5 C -2,9 C 13,6 km/h (3 Bft)
31.12.2010 13:25 2,7 C 92 % 1019,5 hPa 0,0 l/m 13,6 km/h (3 Bft) W-NW 295 0 min 0 W/m 1,5 C -2,9 C 13,6 km/h (3 Bft)
31.12.2010 13:29 2,9 C 92 % 1019,5 hPa 0,0 l/m 14,4 km/h (3 Bft) W-NW 300 0 min 0 W/m 1,7 C -3,1 C 14,4 km/h (3 Bft)
31.12.2010 13:34 2,9 C 92 % 1019,5 hPa 0,0 l/m 11,1 km/h (2 Bft) W-NW 285 0 min 0 W/m 1,7 C -1,0 C 11,1 km/h (2 Bft)
31.12.2010 13:39 3,1 C 91 % 1019,5 hPa 0,0 l/m 15,5 km/h (3 Bft) NW 305 0 min 0 W/m 1,8 C -3,5 C 15,5 km/h (3 Bft)
31.12.2010 13:45 3,1 C 91 % 1019,5 hPa 0,0 l/m 14,8 km/h (3 Bft) W-NW 300 0 min 0 W/m 1,8 C -3,1 C 14,8 km/h (3 Bft)
31.12.2010 13:50 3,1 C 91 % 1019,5 hPa 0,0 l/m 16,0 km/h (3 Bft) NW 305 0 min 0 W/m 1,8 C -3,8 C 16,0 km/h (3 Bft)
31.12.2010 13:55 3,1 C 91 % 1019,5 hPa 0,0 l/m 15,4 km/h (3 Bft) W-NW 290 0 min 0 W/m 1,8 C -3,4 C 15,4 km/h (3 Bft)
31.12.2010 14:00 3,1 C 91 % 1019,5 hPa 0,0 l/m 16,5 km/h (3 Bft) NW 305 0 min 0 W/m 1,8 C -4,0 C 16,5 km/h (3 Bft)
31.12.2010 14:04 3,1 C 91 % 1019,5 hPa 0,0 l/m 18,5 km/h (3 Bft) NW 310 0 min 0 W/m 1,8 C -5,0 C 18,5 km/h (3 Bft)
31.12.2010 14:10 3,1 C 91 % 1019,5 hPa 0,0 l/m 13,7 km/h (3 Bft) W-NW 290 0 min 0 W/m 1,8 C -2,5 C 13,7 km/h (3 Bft)
31.12.2010 14:15 3,1 C 91 % 1019,5 hPa 0,0 l/m 14,0 km/h (3 Bft) W-NW 295 0 min 0 W/m 1,8 C -2,7 C 14,0 km/h (3 Bft)
31.12.2010 14:20 2,9 C 91 % 1019,5 hPa 0,0 l/m 16,0 km/h (3 Bft) W-NW 290 0 min 0 W/m 1,6 C -4,0 C 16,0 km/h (3 Bft)
31.12.2010 14:25 3,0 C 91 % 1019,5 hPa 0,0 l/m 10,8 km/h (2 Bft) W-NW 285 0 min 0 W/m 1,7 C -0,7 C 10,8 km/h (2 Bft)
31.12.2010 14:29 3,0 C 91 % 1019,5 hPa 0,0 l/m 17,0 km/h (3 Bft) W-NW 295 0 min 0 W/m 1,7 C -4,4 C 17,0 km/h (3 Bft)
31.12.2010 14:34 3,1 C 91 % 1019,5 hPa 0,0 l/m 15,0 km/h (3 Bft) NW 305 0 min 0 W/m 1,8 C -3,2 C 15,0 km/h (3 Bft)
31.12.2010 14:39 3,1 C 91 % 1019,5 hPa 0,0 l/m 15,0 km/h (3 Bft) NW 305 0 min 0 W/m 1,8 C -3,2 C 15,0 km/h (3 Bft)
31.12.2010 14:45 3,2 C 91 % 1019,5 hPa 0,0 l/m 15,2 km/h (3 Bft) NW 305 0 min 0 W/m 1,9 C -3,2 C 15,2 km/h (3 Bft)
31.12.2010 14:50 3,1 C 91 % 1019,5 hPa 0,0 l/m 17,3 km/h (3 Bft) W-NW 295 0 min 0 W/m 1,8 C -4,4 C 17,3 km/h (3 Bft)
31.12.2010 14:55 3,1 C 91 % 1019,5 hPa 0,0 l/m 18,8 km/h (3 Bft) W-NW 295 0 min 0 W/m 1,8 C -5,1 C 18,8 km/h (3 Bft)
31.12.2010 14:59 3,0 C 91 % 1019,5 hPa 0,0 l/m 15,7 km/h (3 Bft) W-NW 290 0 min 0 W/m 1,7 C -3,7 C 15,7 km/h (3 Bft)
31.12.2010 15:05 3,0 C 91 % 1019,5 hPa 0,0 l/m 18,1 km/h (3 Bft) W-NW 295 0 min 0 W/m 1,7 C -4,9 C 18,1 km/h (3 Bft)
31.12.2010 15:10 2,9 C 92 % 1019,5 hPa 0,0 l/m 20,3 km/h (4 Bft) W-NW 295 0 min 0 W/m 1,7 C -6,0 C 20,3 km/h (4 Bft)
31.12.2010 15:15 2,9 C 92 % 1019,5 hPa 0,0 l/m 20,8 km/h (4 Bft) W-NW 295 0 min 0 W/m 1,7 C -6,2 C 20,8 km/h (4 Bft)
31.12.2010 15:19 2,9 C 92 % 1019,5 hPa 0,0 l/m 20,5 km/h (4 Bft) W-NW 295 0 min 0 W/m 1,7 C -6,1 C 20,5 km/h (4 Bft)
31.12.2010 15:24 3,0 C 92 % 1019,5 hPa 0,0 l/m 17,2 km/h (3 Bft) W-NW 295 0 min 0 W/m 1,8 C -4,5 C 17,2 km/h (3 Bft)
31.12.2010 15:29 2,9 C 93 % 1019,5 hPa 0,0 l/m 18,8 km/h (3 Bft) W-NW 300 0 min 0 W/m 1,9 C -5,4 C 18,8 km/h (3 Bft)
31.12.2010 15:34 2,9 C 93 % 1019,5 hPa 0,0 l/m 18,7 km/h (3 Bft) W-NW 290 0 min 0 W/m 1,9 C -5,3 C 18,7 km/h (3 Bft)
31.12.2010 15:39 3,0 C 93 % 1019,5 hPa 0,0 l/m 16,1 km/h (3 Bft) W-NW 290 0 min 0 W/m 2,0 C -3,9 C 16,1 km/h (3 Bft)
31.12.2010 15:44 3,0 C 92 % 1019,5 hPa 0,0 l/m 17,1 km/h (3 Bft) W-NW 290 0 min 0 W/m 1,8 C -4,4 C 17,1 km/h (3 Bft)
31.12.2010 15:49 2,9 C 92 % 1019,5 hPa 0,0 l/m 20,9 km/h (4 Bft) W-NW 290 0 min 0 W/m 1,7 C -6,3 C 20,9 km/h (4 Bft)
31.12.2010 15:54 2,7 C 92 % 1019,5 hPa 0,0 l/m 16,8 km/h (3 Bft) W-NW 290 0 min 0 W/m 1,5 C -4,7 C 16,8 km/h (3 Bft)
31.12.2010 15:59 2,7 C 92 % 1019,5 hPa 0,0 l/m 17,7 km/h (3 Bft) W 280 0 min 0 W/m 1,5 C -5,1 C 17,7 km/h (3 Bft)
31.12.2010 16:04 2,6 C 93 % 1019,5 hPa 0,0 l/m 18,1 km/h (3 Bft) W-NW 285 0 min 0 W/m 1,6 C -5,4 C 18,1 km/h (3 Bft)
31.12.2010 16:09 2,5 C 93 % 1019,5 hPa 0,0 l/m 16,6 km/h (3 Bft) W-NW 290 0 min 0 W/m 1,5 C -4,8 C 16,6 km/h (3 Bft)
31.12.2010 16:14 2,4 C 93 % 1019,5 hPa 0,0 l/m 14,0 km/h (3 Bft) W-NW 295 0 min 0 W/m 1,4 C -3,5 C 14,0 km/h (3 Bft)
31.12.2010 16:19 2,3 C 93 % 1019,5 hPa 0,0 l/m 14,3 km/h (3 Bft) W 280 0 min 0 W/m 1,3 C -3,8 C 14,3 km/h (3 Bft)
31.12.2010 16:24 2,3 C 93 % 1019,5 hPa 0,0 l/m 15,2 km/h (3 Bft) NW 305 0 min 0 W/m 1,3 C -4,3 C 15,2 km/h (3 Bft)
31.12.2010 16:29 2,3 C 93 % 1019,5 hPa 0,0 l/m 16,1 km/h (3 Bft) W-NW 285 0 min 0 W/m 1,3 C -4,8 C 16,1 km/h (3 Bft)
31.12.2010 16:34 2,2 C 93 % 1019,5 hPa 0,0 l/m 11,2 km/h (2 Bft) W 280 0 min 0 W/m 1,2 C -1,9 C 11,2 km/h (2 Bft)
31.12.2010 16:39 2,1 C 93 % 1019,5 hPa 0,0 l/m 15,1 km/h (3 Bft) W-NW 285 0 min 0 W/m 1,1 C -4,5 C 15,1 km/h (3 Bft)
31.12.2010 16:44 2,4 C 94 % 1019,5 hPa 0,0 l/m 14,6 km/h (3 Bft) W-NW 290 0 min 0 W/m 1,5 C -3,8 C 14,6 km/h (3 Bft)
31.12.2010 16:49 2,3 C 94 % 1019,5 hPa 0,0 l/m 15,3 km/h (3 Bft) W-NW 285 0 min 0 W/m 1,4 C -4,4 C 15,3 km/h (3 Bft)
31.12.2010 16:54 2,2 C 93 % 1019,5 hPa 0,0 l/m 11,4 km/h (2 Bft) W-NW 295 0 min 0 W/m 1,2 C -2,1 C 11,4 km/h (2 Bft)
31.12.2010 16:59 2,2 C 93 % 1019,5 hPa 0,0 l/m 18,1 km/h (3 Bft) W-NW 295 0 min 0 W/m 1,2 C -5,9 C 18,1 km/h (3 Bft)
31.12.2010 17:04 2,2 C 93 % 1019,5 hPa 0,0 l/m 16,8 km/h (3 Bft) W-NW 295 0 min 0 W/m 1,2 C -5,3 C 16,8 km/h (3 Bft)
31.12.2010 17:09 2,2 C 93 % 1019,5 hPa 0,0 l/m 16,6 km/h (3 Bft) W-NW 290 0 min 0 W/m 1,2 C -5,2 C 16,6 km/h (3 Bft)
31.12.2010 17:14 2,1 C 93 % 1019,5 hPa 0,0 l/m 16,2 km/h (3 Bft) W 260 0 min 0 W/m 1,1 C -5,1 C 16,2 km/h (3 Bft)
31.12.2010 17:19 1,9 C 93 % 1019,5 hPa 0,0 l/m 13,9 km/h (3 Bft) W 275 0 min 0 W/m 0,9 C -4,0 C 13,9 km/h (3 Bft)
31.12.2010 17:24 1,8 C 93 % 1019,5 hPa 0,0 l/m 16,5 km/h (3 Bft) W 270 0 min 0 W/m 0,8 C -5,6 C 16,5 km/h (3 Bft)
31.12.2010 17:29 1,8 C 93 % 1019,5 hPa 0,0 l/m 14,6 km/h (3 Bft) W-NW 290 0 min 0 W/m 0,8 C -4,6 C 14,6 km/h (3 Bft)
31.12.2010 17:34 1,9 C 94 % 1018,5 hPa 0,0 l/m 15,8 km/h (3 Bft) W 260 0 min 0 W/m 1,0 C -5,1 C 15,8 km/h (3 Bft)
31.12.2010 17:39 1,9 C 94 % 1018,5 hPa 0,0 l/m 16,4 km/h (3 Bft) W 260 0 min 0 W/m 1,0 C -5,4 C 16,4 km/h (3 Bft)
31.12.2010 17:44 1,9 C 94 % 1018,5 hPa 0,0 l/m 13,9 km/h (3 Bft) W 280 0 min 0 W/m 1,0 C -4,0 C 13,9 km/h (3 Bft)
31.12.2010 17:49 1,8 C 94 % 1018,5 hPa 0,0 l/m 18,3 km/h (3 Bft) W 280 0 min 0 W/m 0,9 C -6,5 C 18,3 km/h (3 Bft)
31.12.2010 17:54 1,7 C 94 % 1018,5 hPa 0,0 l/m 17,0 km/h (3 Bft) W 275 0 min 0 W/m 0,8 C -6,0 C 17,0 km/h (3 Bft)
31.12.2010 17:59 1,7 C 94 % 1018,5 hPa 0,0 l/m 13,0 km/h (3 Bft) W 280 0 min 0 W/m 0,8 C -3,7 C 13,0 km/h (3 Bft)
31.12.2010 18:04 1,7 C 94 % 1018,5 hPa 0,0 l/m 19,0 km/h (3 Bft) W-NW 285 0 min 0 W/m 0,8 C -7,0 C 19,0 km/h (3 Bft)
31.12.2010 18:10 1,8 C 94 % 1018,5 hPa 0,0 l/m 19,5 km/h (3 Bft) W 270 0 min 0 W/m 0,9 C -7,1 C 19,5 km/h (3 Bft)
31.12.2010 18:15 1,7 C 94 % 1018,5 hPa 0,0 l/m 22,3 km/h (4 Bft) W 275 0 min 0 W/m 0,8 C -8,4 C 22,3 km/h (4 Bft)
31.12.2010 18:20 1,6 C 94 % 1018,5 hPa 0,0 l/m 14,4 km/h (3 Bft) W 270 0 min 0 W/m 0,7 C -4,7 C 14,4 km/h (3 Bft)
31.12.2010 18:25 1,6 C 94 % 1018,5 hPa 0,0 l/m 11,8 km/h (2 Bft) W 275 0 min 0 W/m 0,7 C -3,0 C 11,8 km/h (2 Bft)
31.12.2010 18:30 1,6 C 94 % 1018,5 hPa 0,0 l/m 12,6 km/h (3 Bft) W 260 0 min 0 W/m 0,7 C -3,6 C 12,6 km/h (3 Bft)
31.12.2010 18:35 1,5 C 94 % 1018,5 hPa 0,0 l/m 21,3 km/h (4 Bft) W 270 0 min 0 W/m 0,6 C -8,3 C 21,3 km/h (4 Bft)
31.12.2010 18:40 1,5 C 94 % 1018,5 hPa 0,0 l/m 16,3 km/h (3 Bft) W 270 0 min 0 W/m 0,6 C -5,9 C 16,3 km/h (3 Bft)
31.12.2010 18:45 1,5 C 94 % 1018,5 hPa 0,0 l/m 17,6 km/h (3 Bft) W 270 0 min 0 W/m 0,6 C -6,6 C 17,6 km/h (3 Bft)
31.12.2010 18:50 1,5 C 94 % 1018,5 hPa 0,0 l/m 17,3 km/h (3 Bft) W 275 0 min 0 W/m 0,6 C -6,4 C 17,3 km/h (3 Bft)
31.12.2010 18:55 1,5 C 94 % 1018,5 hPa 0,0 l/m 16,1 km/h (3 Bft) W-NW 285 0 min 0 W/m 0,6 C -5,8 C 16,1 km/h (3 Bft)
31.12.2010 19:00 1,3 C 94 % 1018,5 hPa 0,0 l/m 16,1 km/h (3 Bft) W 275 0 min 0 W/m 0,4 C -6,0 C 16,1 km/h (3 Bft)
31.12.2010 19:05 1,3 C 94 % 1018,5 hPa 0,0 l/m 15,7 km/h (3 Bft) W 270 0 min 0 W/m 0,4 C -5,8 C 15,7 km/h (3 Bft)
31.12.2010 19:10 1,2 C 94 % 1018,5 hPa 0,0 l/m 17,8 km/h (3 Bft) W 270 0 min 0 W/m 0,3 C -7,0 C 17,8 km/h (3 Bft)
31.12.2010 19:15 1,3 C 94 % 1018,5 hPa 0,0 l/m 18,7 km/h (3 Bft) W 270 0 min 0 W/m 0,4 C -7,4 C 18,7 km/h (3 Bft)
31.12.2010 19:20 1,3 C 94 % 1018,5 hPa 0,0 l/m 18,1 km/h (3 Bft) W 280 0 min 0 W/m 0,4 C -7,1 C 18,1 km/h (3 Bft)
31.12.2010 19:25 1,3 C 94 % 1018,5 hPa 0,0 l/m 14,0 km/h (3 Bft) W 280 0 min 0 W/m 0,4 C -4,8 C 14,0 km/h (3 Bft)
31.12.2010 19:30 1,4 C 94 % 1018,5 hPa 0,0 l/m 12,9 km/h (3 Bft) W 275 0 min 0 W/m 0,5 C -4,0 C 12,9 km/h (3 Bft)
31.12.2010 19:35 1,4 C 94 % 1018,5 hPa 0,0 l/m 16,6 km/h (3 Bft) W 270 0 min 0 W/m 0,5 C -6,2 C 16,6 km/h (3 Bft)
31.12.2010 19:40 1,4 C 94 % 1018,5 hPa 0,0 l/m 15,3 km/h (3 Bft) W 270 0 min 0 W/m 0,5 C -5,5 C 15,3 km/h (3 Bft)
31.12.2010 19:45 1,4 C 94 % 1018,5 hPa 0,0 l/m 18,7 km/h (3 Bft) W 275 0 min 0 W/m 0,5 C -7,2 C 18,7 km/h (3 Bft)
31.12.2010 19:50 1,4 C 94 % 1018,5 hPa 0,0 l/m 29,5 km/h (5 Bft) W 270 0 min 0 W/m 0,5 C -11,3 C 29,5 km/h (5 Bft)
31.12.2010 19:55 1,3 C 94 % 1018,5 hPa 0,0 l/m 21,8 km/h (4 Bft) W 280 0 min 0 W/m 0,4 C -8,7 C 21,8 km/h (4 Bft)
31.12.2010 20:00 1,4 C 94 % 1018,5 hPa 0,0 l/m 18,9 km/h (3 Bft) W 275 0 min 0 W/m 0,5 C -7,3 C 18,9 km/h (3 Bft)
31.12.2010 20:05 1,4 C 94 % 1018,5 hPa 0,0 l/m 20,1 km/h (4 Bft) W 270 0 min 0 W/m 0,5 C -7,9 C 20,1 km/h (4 Bft)
31.12.2010 20:10 1,5 C 94 % 1018,5 hPa 0,0 l/m 26,8 km/h (4 Bft) W 275 0 min 0 W/m 0,6 C -10,3 C 26,8 km/h (4 Bft)
31.12.2010 20:15 1,5 C 94 % 1018,5 hPa 0,0 l/m 20,8 km/h (4 Bft) W 275 0 min 0 W/m 0,6 C -8,0 C 20,8 km/h (4 Bft)
31.12.2010 20:20 1,4 C 94 % 1018,5 hPa 0,0 l/m 21,3 km/h (4 Bft) W 260 0 min 0 W/m 0,5 C -8,4 C 21,3 km/h (4 Bft)
31.12.2010 20:25 1,4 C 94 % 1018,5 hPa 0,0 l/m 21,3 km/h (4 Bft) W 260 0 min 0 W/m 0,5 C -8,4 C 21,3 km/h (4 Bft)
31.12.2010 20:30 1,4 C 94 % 1018,5 hPa 0,0 l/m 21,5 km/h (4 Bft) W 270 0 min 0 W/m 0,5 C -8,5 C 21,5 km/h (4 Bft)
31.12.2010 20:35 1,2 C 94 % 1018,5 hPa 0,0 l/m 26,0 km/h (4 Bft) W 260 0 min 0 W/m 0,3 C -10,4 C 26,0 km/h (4 Bft)
31.12.2010 20:40 1,2 C 94 % 1017,5 hPa 0,0 l/m 23,8 km/h (4 Bft) W 260 0 min 0 W/m 0,3 C -9,6 C 23,8 km/h (4 Bft)
31.12.2010 20:44 1,2 C 94 % 1017,5 hPa 0,0 l/m 24,0 km/h (4 Bft) W 260 0 min 0 W/m 0,3 C -9,7 C 24,0 km/h (4 Bft)
31.12.2010 20:49 1,0 C 94 % 1017,5 hPa 0,0 l/m 23,9 km/h (4 Bft) W 260 0 min 0 W/m 0,1 C -10,0 C 23,9 km/h (4 Bft)
31.12.2010 20:54 1,0 C 94 % 1018,5 hPa 0,0 l/m 18,7 km/h (3 Bft) W 265 0 min 0 W/m 0,1 C -7,7 C 18,7 km/h (3 Bft)
31.12.2010 21:00 0,9 C 94 % 1017,5 hPa 0,0 l/m 23,7 km/h (4 Bft) W 270 0 min 0 W/m 0,0 C -10,0 C 23,7 km/h (4 Bft)
31.12.2010 21:04 0,8 C 94 % 1017,5 hPa 0,0 l/m 24,6 km/h (4 Bft) W 270 0 min 0 W/m -0,1 C -10,5 C 24,6 km/h (4 Bft)
31.12.2010 21:09 0,9 C 95 % 1017,5 hPa 0,0 l/m 25,4 km/h (4 Bft) W 260 0 min 0 W/m 0,2 C -10,6 C 25,4 km/h (4 Bft)
31.12.2010 21:15 1,1 C 95 % 1017,5 hPa 0,0 l/m 29,3 km/h (5 Bft) W 265 0 min 0 W/m 0,4 C -11,7 C 29,3 km/h (5 Bft)
31.12.2010 21:20 1,1 C 95 % 1017,5 hPa 0,0 l/m 26,5 km/h (4 Bft) W 270 0 min 0 W/m 0,4 C -10,8 C 26,5 km/h (4 Bft)
31.12.2010 21:25 1,1 C 95 % 1017,5 hPa 0,0 l/m 28,3 km/h (5 Bft) W 260 0 min 0 W/m 0,4 C -11,3 C 28,3 km/h (5 Bft)
31.12.2010 21:30 1,1 C 95 % 1017,5 hPa 0,0 l/m 24,4 km/h (4 Bft) W 270 0 min 0 W/m 0,4 C -10,0 C 24,4 km/h (4 Bft)
31.12.2010 21:34 1,1 C 95 % 1017,5 hPa 0,0 l/m 29,6 km/h (5 Bft) W-SW 255 0 min 0 W/m 0,4 C -11,7 C 29,6 km/h (5 Bft)
31.12.2010 21:39 1,2 C 95 % 1017,5 hPa 0,0 l/m 27,0 km/h (5 Bft) W 265 0 min 0 W/m 0,5 C -10,8 C 27,0 km/h (5 Bft)
31.12.2010 21:44 1,2 C 95 % 1017,5 hPa 0,0 l/m 21,2 km/h (4 Bft) W 265 0 min 0 W/m 0,5 C -8,6 C 21,2 km/h (4 Bft)
31.12.2010 21:50 1,2 C 95 % 1017,5 hPa 0,0 l/m 23,8 km/h (4 Bft) W 260 0 min 0 W/m 0,5 C -9,6 C 23,8 km/h (4 Bft)
31.12.2010 21:55 1,2 C 95 % 1017,5 hPa 0,0 l/m 28,6 km/h (5 Bft) W 275 0 min 0 W/m 0,5 C -11,3 C 28,6 km/h (5 Bft)
31.12.2010 22:00 1,2 C 96 % 1017,5 hPa 0,0 l/m 24,8 km/h (4 Bft) W 265 0 min 0 W/m 0,6 C -10,0 C 24,8 km/h (4 Bft)
31.12.2010 22:04 1,2 C 96 % 1016,5 hPa 0,0 l/m 25,2 km/h (4 Bft) W 270 0 min 0 W/m 0,6 C -10,2 C 25,2 km/h (4 Bft)
31.12.2010 22:10 1,2 C 96 % 1016,5 hPa 0,0 l/m 25,0 km/h (4 Bft) W 265 0 min 0 W/m 0,6 C -10,1 C 25,0 km/h (4 Bft)
31.12.2010 22:15 1,2 C 96 % 1016,5 hPa 0,0 l/m 24,0 km/h (4 Bft) W 260 0 min 0 W/m 0,6 C -9,7 C 24,0 km/h (4 Bft)
31.12.2010 22:20 1,2 C 96 % 1016,5 hPa 0,0 l/m 27,1 km/h (5 Bft) W 265 0 min 0 W/m 0,6 C -10,8 C 27,1 km/h (5 Bft)
31.12.2010 22:24 1,3 C 96 % 1016,5 hPa 0,0 l/m 22,4 km/h (4 Bft) W 270 0 min 0 W/m 0,7 C -9,0 C 22,4 km/h (4 Bft)
31.12.2010 22:29 1,3 C 96 % 1016,5 hPa 0,0 l/m 27,7 km/h (5 Bft) W 270 0 min 0 W/m 0,7 C -10,9 C 27,7 km/h (5 Bft)
31.12.2010 22:34 1,3 C 96 % 1016,5 hPa 0,0 l/m 30,9 km/h (5 Bft) W 265 0 min 0 W/m 0,7 C -11,8 C 30,9 km/h (5 Bft)
31.12.2010 22:40 1,3 C 96 % 1016,5 hPa 0,0 l/m 22,5 km/h (4 Bft) W 260 0 min 0 W/m 0,7 C -9,0 C 22,5 km/h (4 Bft)
31.12.2010 22:45 1,3 C 96 % 1016,5 hPa 0,0 l/m 29,2 km/h (5 Bft) W 265 0 min 0 W/m 0,7 C -11,3 C 29,2 km/h (5 Bft)
31.12.2010 22:50 1,4 C 96 % 1016,5 hPa 0,0 l/m 23,2 km/h (4 Bft) W 260 0 min 0 W/m 0,8 C -9,2 C 23,2 km/h (4 Bft)
31.12.2010 22:54 1,5 C 96 % 1015,5 hPa 0,0 l/m 24,6 km/h (4 Bft) W 270 0 min 0 W/m 0,9 C -9,5 C 24,6 km/h (4 Bft)
31.12.2010 22:59 1,5 C 96 % 1015,5 hPa 0,0 l/m 24,5 km/h (4 Bft) W 270 0 min 0 W/m 0,9 C -9,5 C 24,5 km/h (4 Bft)
31.12.2010 23:05 1,5 C 96 % 1015,5 hPa 0,0 l/m 27,3 km/h (5 Bft) W 265 0 min 0 W/m 0,9 C -10,5 C 27,3 km/h (5 Bft)
31.12.2010 23:09 1,5 C 96 % 1015,5 hPa 0,0 l/m 26,2 km/h (4 Bft) W 260 0 min 0 W/m 0,9 C -10,1 C 26,2 km/h (4 Bft)
31.12.2010 23:14 1,6 C 96 % 1015,5 hPa 0,0 l/m 29,3 km/h (5 Bft) W 270 0 min 0 W/m 1,0 C -11,0 C 29,3 km/h (5 Bft)
31.12.2010 23:19 1,6 C 96 % 1015,5 hPa 0,0 l/m 29,0 km/h (5 Bft) W 260 0 min 0 W/m 1,0 C -10,9 C 29,0 km/h (5 Bft)
31.12.2010 23:24 1,6 C 96 % 1015,5 hPa 0,0 l/m 23,5 km/h (4 Bft) W 280 0 min 0 W/m 1,0 C -9,0 C 23,5 km/h (4 Bft)
31.12.2010 23:30 1,6 C 96 % 1015,5 hPa 0,0 l/m 28,6 km/h (5 Bft) W 270 0 min 0 W/m 1,0 C -10,7 C 28,6 km/h (5 Bft)
31.12.2010 23:35 1,6 C 96 % 1015,5 hPa 0,0 l/m 23,0 km/h (4 Bft) W 275 0 min 0 W/m 1,0 C -8,8 C 23,0 km/h (4 Bft)
31.12.2010 23:40 1,6 C 96 % 1015,5 hPa 0,0 l/m 27,6 km/h (5 Bft) W 270 0 min 0 W/m 1,0 C -10,4 C 27,6 km/h (5 Bft)
31.12.2010 23:44 1,6 C 96 % 1015,5 hPa 0,0 l/m 26,5 km/h (4 Bft) W 265 0 min 0 W/m 1,0 C -10,1 C 26,5 km/h (4 Bft)
31.12.2010 23:49 1,7 C 96 % 1015,5 hPa 0,0 l/m 30,1 km/h (5 Bft) W 265 0 min 0 W/m 1,1 C -11,0 C 30,1 km/h (5 Bft)
31.12.2010 23:54 1,7 C 96 % 1014,5 hPa 0,0 l/m 27,0 km/h (5 Bft) W 265 0 min 0 W/m 1,1 C -10,1 C 27,0 km/h (5 Bft)
_ Min-Zeit 21:04 12:24 23:54 - 11:15 - - - - 21:04 22:34 11:15
Minimum _ 0,8 C 91 % 1014,5 hPa - 9,6 km/h (2 Bft) - - - - -0,1 C -11,8 C 9,6 km/h (2 Bft)
_ Max-Zeit 14:45 02:39 11:15 00:00 22:34 - - 00:00 00:00 11:45 11:15 22:34
Maximum _ 3,2 C 98 % 1020,5 hPa 0,0 l/m 30,9 km/h
W (5 Bft)
- - 0 min 0 W/m 2,2 C -0,2 C 30,9 km/h
W (5 Bft)
Durchschnitt _ 2,0 C 95 % 1018,7 hPa #0,0 l/m 18,0 km/h (3 Bft) NW - #0 min. 0 W/m 1,3 C -5,9 C 18,0 km/h (3 Bft)
copyright by Holger Just